Augusta, Montana
Current Conditions -  °F | °C
As of 7:53 AM on Thursday 18 Dec 2014 (Local Time) from KGTF Reporting Station
Scattered Clouds Scattered Clouds  
Wind Chill: 21°   Ceiling: Unl
Heat Index: 32°   Visibility: 10mi
Dew Point: 24°   Wind: 17mph
Humidity: 73%   Direction: 210°SSW
Pressure: 29.9"   Gusts: NA
Location:  47.49°N, 112.4°W
Report Text: KGTF 181453Z 21015KT 10SM SCT110 00/M04 A2990 RMK AO2 SLP168 T00001044 53004
Loading
Personal Weather Stations






























Interactive Weather Map New forecast layout! Learn more

10-Day Weather Forecast

Advertisements
Track Severe Weather on mobile